Ottumwa, Iowa
Current Conditions -  °F | °C
As of 11:53 PM on Monday 26 Jan 2015 (Local Time) from KOTM Reporting Station
Clear Clear  
Wind Chill: 26°   Ceiling: Unl
Heat Index: 36°   Visibility: 10mi
Dew Point: 30°   Wind: 16mph
Humidity: 79%   Direction: 320°NW
Pressure: 29.97"   Gusts: NA
Location:  41.02°N, 92.41°W
Report Text: KOTM 270553Z AUTO 32014KT 10SM CLR 02/M01 A2997 RMK AO2 SLP154 T00221011 10061 20022 400941033 51019
Loading
Personal Weather Stations






























Interactive Weather Map New forecast layout! Learn more

10-Day Weather Forecast

Advertisements
Track Severe Weather on mobile